createdAt,value
2018-10-03T00:00:01.511Z,12.03
2018-10-03T00:05:01.836Z,12.11
2018-10-03T00:10:01.157Z,12.01
2018-10-03T00:15:01.419Z,12.11
2018-10-03T00:20:01.804Z,11.99
2018-10-03T00:25:01.104Z,12.02
2018-10-03T00:30:01.426Z,11.91
2018-10-03T00:35:01.813Z,11.96
2018-10-03T00:40:01.403Z,12.19
2018-10-03T00:45:01.754Z,12.25
2018-10-03T00:50:02.172Z,12.3
2018-10-03T00:55:01.517Z,12.28
2018-10-03T01:00:01.841Z,12.3
2018-10-03T01:05:01.279Z,12.34
2018-10-03T01:10:01.748Z,12.41
2018-10-03T01:15:01.948Z,12.38
2018-10-03T01:20:01.230Z,12.35
2018-10-03T01:25:01.550Z,12.44
2018-10-03T01:30:01.878Z,12.49
2018-10-03T01:35:01.171Z,12.51
2018-10-03T01:40:01.478Z,12.52
2018-10-03T01:45:01.789Z,12.5
2018-10-03T01:50:01.128Z,12.52
2018-10-03T01:55:01.353Z,12.46
2018-10-03T02:00:01.693Z,12.45
2018-10-03T02:05:01.995Z,12.47
2018-10-03T02:10:01.273Z,12.55
2018-10-03T02:15:01.551Z,12.61
2018-10-03T02:20:02.023Z,12.53
2018-10-03T02:25:01.513Z,12.47
2018-10-03T02:30:01.754Z,12.4
2018-10-03T02:35:01.124Z,12.36
2018-10-03T02:40:01.370Z,12.25
2018-10-03T02:45:01.746Z,12.34
2018-10-03T02:50:02.015Z,12.28
2018-10-03T02:55:01.293Z,12.27
2018-10-03T03:00:01.650Z,12.23
2018-10-03T03:05:02.034Z,12.18
2018-10-03T03:10:01.337Z,12.15
2018-10-03T03:15:01.761Z,12.14
2018-10-03T03:20:02.222Z,12.1
2018-10-03T03:25:01.571Z,12.12
2018-10-03T03:30:01.845Z,12.26
2018-10-03T03:35:01.210Z,12.16
2018-10-03T03:40:01.541Z,12.15
2018-10-03T03:45:01.867Z,12.11
2018-10-03T03:50:01.124Z,12.11
2018-10-03T03:55:01.385Z,12.06
2018-10-03T04:00:01.791Z,12.01
2018-10-03T04:05:02.191Z,11.98
2018-10-03T04:10:01.603Z,12.11
2018-10-03T04:15:01.870Z,12.07
2018-10-03T04:20:01.212Z,12.04
2018-10-03T04:25:01.478Z,11.99
2018-10-03T04:30:01.840Z,12
2018-10-03T04:35:01.316Z,12.03
2018-10-03T04:40:02.060Z,11.97
2018-10-03T04:45:01.308Z,11.92
2018-10-03T04:50:01.606Z,11.96
2018-10-03T04:55:01.932Z,11.81
2018-10-03T05:00:01.275Z,11.78
2018-10-03T05:05:01.584Z,11.81
2018-10-03T05:10:01.862Z,11.71
2018-10-03T05:15:01.230Z,11.59
2018-10-03T05:20:01.536Z,11.51
2018-10-03T05:25:01.823Z,11.47
2018-10-03T05:30:01.109Z,11.47
2018-10-03T05:35:01.436Z,11.46
2018-10-03T05:40:01.720Z,11.41
2018-10-03T05:45:01.973Z,11.3
2018-10-03T05:50:01.359Z,11.3
2018-10-03T05:55:01.673Z,11.26
2018-10-03T06:00:02.036Z,11.39
2018-10-03T06:05:01.314Z,11.25
2018-10-03T06:10:01.595Z,11.22
2018-10-03T06:15:01.877Z,11.25
2018-10-03T06:20:01.270Z,11.26
2018-10-03T06:25:01.575Z,11.24
2018-10-03T06:30:01.847Z,11.29
2018-10-03T06:35:01.156Z,11.32
2018-10-03T06:40:01.434Z,11.32
2018-10-03T06:45:01.730Z,11.3
2018-10-03T06:50:01.105Z,11.3
2018-10-03T06:55:01.350Z,11.32
2018-10-03T07:00:01.698Z,11.39
2018-10-03T07:05:02.085Z,11.46
2018-10-03T07:10:01.338Z,11.58
2018-10-03T07:15:01.713Z,11.74
2018-10-03T07:20:02.072Z,11.74
2018-10-03T07:25:01.407Z,11.78
2018-10-03T07:30:01.719Z,11.84
2018-10-03T07:35:02.040Z,11.82
2018-10-03T07:40:01.316Z,11.88
2018-10-03T07:45:01.647Z,11.97
2018-10-03T07:50:01.951Z,12
2018-10-03T07:55:01.204Z,12.06
2018-10-03T08:00:01.447Z,12.08
2018-10-03T08:05:01.892Z,12.15
2018-10-03T08:10:01.357Z,12.18
2018-10-03T08:15:01.906Z,12.25
2018-10-03T08:20:01.185Z,12.34
2018-10-03T08:25:01.482Z,12.4
2018-10-03T08:30:01.954Z,12.46
2018-10-03T08:35:01.596Z,12.66
2018-10-03T08:40:01.964Z,12.93
2018-10-03T08:45:01.220Z,13.05
2018-10-03T08:50:01.470Z,12.88
2018-10-03T08:55:01.830Z,12.9
2018-10-03T09:00:01.141Z,13.1
2018-10-03T09:05:01.405Z,13.19
2018-10-03T09:10:01.762Z,13.3
2018-10-03T09:15:02.124Z,13.41
2018-10-03T09:20:01.391Z,13.56
2018-10-03T09:25:01.699Z,13.47
2018-10-03T09:30:01.093Z,13.56
2018-10-03T09:35:01.358Z,13.53
2018-10-03T09:40:01.764Z,13.53
2018-10-03T09:45:01.156Z,13.48
2018-10-03T09:50:01.485Z,13.36
2018-10-03T09:55:01.848Z,13.31
2018-10-03T10:00:01.151Z,13.41
2018-10-03T10:05:01.594Z,13.59
2018-10-03T10:10:02.060Z,13.52
2018-10-03T10:15:01.299Z,13.25
2018-10-03T10:20:01.637Z,13.24
2018-10-03T10:25:02.024Z,13.31
2018-10-03T10:30:01.605Z,13.47
2018-10-03T10:35:01.929Z,13.8
2018-10-03T10:40:01.284Z,13.98
2018-10-03T10:45:02.014Z,13.83
2018-10-03T10:50:01.340Z,13.83
2018-10-03T10:55:01.634Z,14.11
2018-10-03T11:00:01.889Z,14.06
2018-10-03T11:05:01.269Z,13.6
2018-10-03T11:10:01.558Z,13.66
2018-10-03T11:15:01.905Z,13.85
2018-10-03T11:20:01.193Z,14.03
2018-10-03T11:25:01.518Z,13.9
2018-10-03T11:30:02.332Z,14.11
2018-10-03T11:35:01.682Z,14.25
2018-10-03T11:40:02.053Z,14.24
2018-10-03T11:45:01.351Z,13.99
2018-10-03T11:50:01.707Z,13.86
2018-10-03T11:55:01.987Z,14.15
2018-10-03T12:00:01.279Z,14.1
2018-10-03T12:05:01.610Z,14.21
2018-10-03T12:10:01.916Z,14.33
2018-10-03T12:15:01.192Z,14.29
2018-10-03T12:20:01.539Z,14.48
2018-10-03T12:25:01.906Z,14.6
2018-10-03T12:30:01.492Z,14.78
2018-10-03T12:35:01.762Z,14.62
2018-10-03T12:40:01.168Z,14.56
2018-10-03T12:45:01.531Z,14.55
2018-10-03T12:50:02.038Z,14.44
2018-10-03T12:55:01.316Z,14.37
2018-10-03T13:00:01.681Z,14.49
2018-10-03T13:05:02.132Z,14.49
2018-10-03T13:10:01.525Z,14.29
2018-10-03T13:15:01.863Z,14.23
2018-10-03T13:20:01.194Z,14.09
2018-10-03T13:25:01.698Z,14.2
2018-10-03T13:30:01.108Z,14.37
2018-10-03T13:35:01.447Z,14.33
2018-10-03T13:40:01.758Z,14.42
2018-10-03T13:45:02.102Z,14.44
2018-10-03T13:50:01.451Z,14.24
2018-10-03T13:55:01.801Z,14.08
2018-10-03T14:00:01.194Z,13.99
2018-10-03T14:05:01.530Z,13.98
2018-10-03T14:10:02.074Z,14.13
2018-10-03T14:15:01.328Z,14.12
2018-10-03T14:20:01.687Z,14.14
2018-10-03T14:25:02.010Z,14.15
2018-10-03T14:30:01.367Z,14.08
2018-10-03T14:35:01.921Z,14.06
2018-10-03T14:40:01.257Z,13.97
2018-10-03T14:45:01.544Z,13.89
2018-10-03T14:50:01.858Z,13.83
2018-10-03T14:55:01.136Z,13.78
2018-10-03T15:00:01.393Z,13.75
2018-10-03T15:05:01.789Z,13.7
2018-10-03T15:10:02.199Z,13.7
2018-10-03T15:15:01.588Z,13.61
2018-10-03T15:20:01.902Z,13.43
2018-10-03T15:25:01.215Z,13.37
2018-10-03T15:30:01.542Z,13.23
2018-10-03T15:35:01.145Z,13.09
2018-10-03T15:40:01.413Z,13
2018-10-03T15:45:01.751Z,12.94
2018-10-03T15:50:02.224Z,12.82
2018-10-03T15:55:01.748Z,12.72
2018-10-03T16:00:01.391Z,12.63
2018-10-03T16:05:01.697Z,12.58
2018-10-03T16:10:02.057Z,12.52
2018-10-03T16:15:01.364Z,12.45
2018-10-03T16:20:01.766Z,12.34
2018-10-03T16:25:02.058Z,12.27
2018-10-03T16:30:01.364Z,12.2
2018-10-03T16:35:01.676Z,12.15
2018-10-03T16:40:02.025Z,12.06
2018-10-03T16:45:01.368Z,12.01
2018-10-03T16:50:01.740Z,11.97
2018-10-03T16:55:01.389Z,11.88
2018-10-03T17:00:01.722Z,11.78
2018-10-03T17:05:02.074Z,11.7
2018-10-03T17:10:01.426Z,11.63
2018-10-03T17:15:01.766Z,11.47
2018-10-03T17:20:02.103Z,11.32
2018-10-03T17:25:01.401Z,11.16
2018-10-03T17:30:01.705Z,11.01
2018-10-03T17:35:02.016Z,10.87
2018-10-03T17:40:01.281Z,10.77
2018-10-03T17:45:01.545Z,10.66
2018-10-03T17:50:01.885Z,10.58
2018-10-03T17:55:01.131Z,10.53
2018-10-03T18:00:01.371Z,10.43
2018-10-03T18:05:01.804Z,10.33
2018-10-03T18:10:01.720Z,10.18
2018-10-03T18:15:02.004Z,10.08
2018-10-03T18:20:01.293Z,10
2018-10-03T18:25:01.689Z,9.93
2018-10-03T18:30:01.095Z,9.84
2018-10-03T18:35:01.408Z,9.81
2018-10-03T18:40:01.701Z,9.77
2018-10-03T18:45:02.097Z,9.74
2018-10-03T18:50:01.671Z,9.71
2018-10-03T18:55:01.944Z,9.71
2018-10-03T19:00:01.207Z,9.68
2018-10-03T19:05:01.555Z,9.64
2018-10-03T19:10:01.848Z,9.56
2018-10-03T19:15:01.111Z,9.55
2018-10-03T19:20:01.691Z,9.49
2018-10-03T19:25:01.237Z,9.46
2018-10-03T19:30:01.551Z,9.47
2018-10-03T19:35:01.953Z,9.41
2018-10-03T19:40:01.359Z,9.39
2018-10-03T19:45:01.781Z,9.35
2018-10-03T19:50:01.156Z,9.32
2018-10-03T19:55:01.615Z,9.32
2018-10-03T20:00:02.095Z,9.33
2018-10-03T20:05:01.549Z,9.3
2018-10-03T20:10:01.949Z,9.32
2018-10-03T20:15:01.873Z,9.37
2018-10-03T20:20:01.262Z,9.37
2018-10-03T20:25:01.635Z,9.31
2018-10-03T20:30:02.120Z,9.24
2018-10-03T20:35:01.599Z,9.19
2018-10-03T20:40:02.001Z,9.12
2018-10-03T20:45:01.341Z,9.06
2018-10-03T20:50:01.798Z,8.97
2018-10-03T20:55:01.208Z,8.92
2018-10-03T21:00:01.497Z,8.83
2018-10-03T21:05:01.807Z,8.79
2018-10-03T21:10:01.113Z,8.79
2018-10-03T21:15:01.400Z,8.8
2018-10-03T21:20:01.773Z,8.74
2018-10-03T21:25:01.244Z,8.68
2018-10-03T21:30:02.055Z,8.68
2018-10-03T21:35:01.532Z,8.57
2018-10-03T21:40:02.209Z,8.53
2018-10-03T21:45:01.715Z,8.51
2018-10-03T21:50:01.157Z,8.48
2018-10-03T21:55:01.520Z,8.39
2018-10-03T22:00:01.913Z,8.34
2018-10-03T22:05:01.323Z,8.27
2018-10-03T22:10:01.712Z,8.21
2018-10-03T22:15:01.985Z,8.08
2018-10-03T22:20:01.347Z,8.04
2018-10-03T22:25:01.726Z,7.99
2018-10-03T22:30:01.136Z,8
2018-10-03T22:35:01.413Z,8
2018-10-03T22:40:01.810Z,7.99
2018-10-03T22:45:01.203Z,7.99
2018-10-03T22:50:01.503Z,7.96
2018-10-03T22:55:01.807Z,7.91
2018-10-03T23:00:01.128Z,7.98
2018-10-03T23:05:01.493Z,7.93
2018-10-03T23:10:01.948Z,7.93
2018-10-03T23:20:01.634Z,8.12
2018-10-03T23:25:01.952Z,8.08
2018-10-03T23:30:01.266Z,8
2018-10-03T23:35:01.548Z,7.89
2018-10-03T23:40:01.841Z,7.91
2018-10-03T23:45:01.179Z,7.86
2018-10-03T23:50:01.421Z,7.77
2018-10-03T23:55:01.763Z,7.76
